Terminal Aerodrome Forecast
Issued by NWS

Home | Current Version | Previous Version | Text Only | Print | Product List | Glossary On
Versions: 1 2 3 4 5 6 7 8 9 10 11 12 13 14 15 16 17 18 19 20 21 22 23 24 25 26 27 28 29 30 31 32 33 34 35 36 37 38 39 40 41 42
000
FTUS43 KDTX 100525
TAFPTK
TAF
KPTK 100525Z 1006/1106 28013KT 2SM -SHSN OVC015
     FM100700 28013KT P6SM -SHSN OVC025
     FM101500 30013G18KT 6SM -SHSN BKN025 OVC035
     FM102300 30013KT P6SM SCT035 BKN045
     FM110400 28011KT P6SM SCT045=

USA.gov is the U.S. government's official web portal to all federal, state and local government web resources and services.